Time;durP1;ratioP1;P1;durP2;ratioP2;P2;SDS_P1;SDS_P2;PMS_P1;PMS_P2;Temp;Humidity;BMP_temperature;BMP_pressure;BME280_temperature;BME280_humidity;BME280_pressure;Samples;Min_cycle;Max_cycle;Signal;HPM_P1;HPM_P2
2022/05/05 00:01:52;;;;;;;12.27;9.75;;;23.10;99.90;;;;;;5009883;28;20500;-46
2022/05/05 00:04:19;;;;;;;12.43;9.50;;;23.10;99.90;;;;;;5011148;28;20390;-46
2022/05/05 00:06:45;;;;;;;12.13;9.48;;;23.10;99.90;;;;;;5011899;28;20030;-44
2022/05/05 00:09:11;;;;;;;11.93;9.57;;;23.10;99.90;;;;;;5015173;28;20064;-44
2022/05/05 00:14:24;;;;;;;12.80;10.00;;;23.10;99.90;;;;;;5002881;28;20385;-45
2022/05/05 00:17:03;;;;;;;11.60;9.70;;;23.10;99.90;;;;;;5014868;28;20124;-46
2022/05/05 00:19:30;;;;;;;10.10;8.75;;;23.00;99.90;;;;;;5014954;28;20076;-46
2022/05/05 00:21:57;;;;;;;12.07;9.45;;;23.10;99.90;;;;;;5015175;28;20101;-46
2022/05/05 00:24:23;;;;;;;13.43;9.88;;;23.00;99.90;;;;;;5014728;28;20057;-50
2022/05/05 00:26:49;;;;;;;10.65;8.70;;;23.00;99.90;;;;;;5013604;28;20022;-46
2022/05/05 00:29:15;;;;;;;12.73;10.02;;;23.00;99.90;;;;;;5029842;28;20028;-45
2022/05/05 00:31:42;;;;;;;10.98;9.10;;;23.00;99.90;;;;;;5014744;28;20105;-46
2022/05/05 00:34:08;;;;;;;10.07;8.95;;;23.00;99.90;;;;;;5014857;28;20018;-45
2022/05/05 00:36:34;;;;;;;11.32;9.13;;;23.00;99.90;;;;;;5014333;28;20053;-45
2022/05/05 00:39:00;;;;;;;11.25;9.10;;;23.00;99.90;;;;;;5014671;28;20018;-46
2022/05/05 00:41:26;;;;;;;11.18;8.82;;;23.00;99.90;;;;;;5013070;28;20438;-45
2022/05/05 00:43:52;;;;;;;11.68;9.02;;;23.00;99.90;;;;;;5013101;28;20030;-45
2022/05/05 00:46:18;;;;;;;11.10;9.07;;;23.00;99.90;;;;;;5012777;28;20033;-46
2022/05/05 00:48:44;;;;;;;11.55;9.35;;;23.00;99.90;;;;;;5014293;28;20014;-45
2022/05/05 00:51:10;;;;;;;11.75;8.95;;;23.00;99.90;;;;;;5014167;28;20026;-46
2022/05/05 00:53:36;;;;;;;13.77;9.50;;;23.00;99.90;;;;;;5014311;28;20512;-45
2022/05/05 00:56:13;;;;;;;12.02;9.32;;;23.00;99.90;;;;;;5014292;28;20037;-45
2022/05/05 00:58:39;;;;;;;12.50;8.93;;;23.00;99.90;;;;;;5014096;28;20477;-45
2022/05/05 01:01:06;;;;;;;12.05;9.25;;;22.90;99.90;;;;;;5014581;28;20058;-46
2022/05/05 01:03:33;;;;;;;12.13;9.55;;;22.90;99.90;;;;;;5014186;28;20324;-45
2022/05/05 01:05:59;;;;;;;;;;;22.90;99.90;;;;;;5014825;28;20128;-46
2022/05/05 01:08:25;;;;;;;11.68;9.35;;;23.00;99.90;;;;;;5013914;28;20320;-45
2022/05/05 01:10:52;;;;;;;10.07;8.07;;;22.90;99.90;;;;;;5014144;28;20030;-46
2022/05/05 01:13:17;;;;;;;11.50;9.10;;;22.90;99.90;;;;;;5014023;28;20037;-45
2022/05/05 01:15:43;;;;;;;10.38;8.52;;;22.90;99.90;;;;;;5013525;28;20390;-45
2022/05/05 01:18:10;;;;;;;9.70;8.68;;;22.90;99.90;;;;;;5013535;28;20540;-46
2022/05/05 01:21:13;;;;;;;10.25;8.45;;;22.90;99.90;;;;;;5013836;28;20026;-46
2022/05/05 01:23:39;;;;;;;10.27;7.63;;;22.90;99.90;;;;;;5004063;28;20032;-46
2022/05/05 01:28:51;;;;;;;8.23;7.20;;;22.90;99.90;;;;;;5013778;28;20052;-45
2022/05/05 01:31:17;;;;;;;10.57;8.45;;;22.90;99.90;;;;;;5013434;28;20453;-46
2022/05/05 01:33:42;;;;;;;9.93;8.18;;;22.90;99.90;;;;;;5013623;28;20041;-46
2022/05/05 01:36:27;;;;;;;10.10;7.53;;;22.90;99.90;;;;;;5013436;28;20030;-46
2022/05/05 01:38:53;;;;;;;11.82;8.43;;;22.90;99.90;;;;;;5013503;28;20058;-46
2022/05/05 01:41:21;;;;;;;9.98;7.70;;;22.90;99.90;;;;;;5013247;28;20553;-46
2022/05/05 01:43:47;;;;;;;10.85;8.43;;;22.90;99.90;;;;;;5013461;28;20034;-46
2022/05/05 01:46:14;;;;;;;9.57;7.50;;;22.90;99.90;;;;;;5013332;28;20521;-46
2022/05/05 01:48:40;;;;;;;10.10;7.72;;;22.90;99.90;;;;;;5013318;28;20076;-46
2022/05/05 01:51:06;;;;;;;13.02;8.05;;;22.90;99.90;;;;;;5013186;28;20025;-46
2022/05/05 01:53:38;;;;;;;10.13;7.70;;;22.90;99.90;;;;;;5013234;28;20445;-46
2022/05/05 01:56:11;;;;;;;10.13;8.00;;;22.90;99.90;;;;;;5013355;28;20045;-46
2022/05/05 01:58:38;;;;;;;8.18;6.75;;;22.80;99.90;;;;;;5013150;28;20021;-47
2022/05/05 02:01:06;;;;;;;9.52;7.28;;;22.90;99.90;;;;;;5054348;22;20045;-54
2022/05/05 02:03:32;;;;;;;;;;;22.80;99.90;;;;;;5053028;28;20426;-54
2022/05/05 02:05:58;;;;;;;7.75;5.85;;;22.80;99.90;;;;;;5052691;28;19951;-54
2022/05/05 02:08:24;;;;;;;10.52;7.68;;;22.90;99.90;;;;;;5052438;28;20025;-54
2022/05/05 02:10:50;;;;;;;7.85;6.85;;;22.80;99.90;;;;;;5052816;28;20024;-54
2022/05/05 02:13:16;;;;;;;8.10;6.82;;;22.90;99.90;;;;;;5052577;28;20082;-54
2022/05/05 02:15:41;;;;;;;9.15;6.93;;;22.80;99.90;;;;;;5051740;28;20958;-54
2022/05/05 02:18:12;;;;;;;9.65;7.57;;;22.80;99.90;;;;;;5038969;28;20146;-54
2022/05/05 02:20:39;;;;;;;8.60;7.13;;;22.80;99.90;;;;;;5052553;28;20487;-53
2022/05/05 02:23:06;;;;;;;9.10;7.28;;;22.80;99.90;;;;;;5052217;28;20029;-54
2022/05/05 02:25:33;;;;;;;7.80;6.43;;;22.80;99.90;;;;;;5034363;28;20075;-54
2022/05/05 02:27:59;;;;;;;8.40;6.97;;;22.80;99.90;;;;;;5051978;28;20424;-54
2022/05/05 02:30:26;;;;;;;8.18;6.63;;;22.80;99.90;;;;;;5051405;28;20423;-54
2022/05/05 02:32:51;;;;;;;8.53;6.70;;;22.80;99.90;;;;;;5052202;28;20029;-54
2022/05/05 02:35:18;;;;;;;7.95;6.75;;;22.80;99.90;;;;;;5034065;28;20028;-54
2022/05/05 02:40:28;;;;;;;8.70;6.63;;;22.80;99.90;;;;;;5051960;28;20032;-54
2022/05/05 02:42:55;;;;;;;8.25;6.75;;;22.80;99.90;;;;;;5051729;28;20025;-54
2022/05/05 02:45:22;;;;;;;9.65;7.32;;;22.80;99.90;;;;;;5052063;28;20401;-54
2022/05/05 02:47:49;;;;;;;10.63;6.63;;;22.80;99.90;;;;;;5051743;28;20342;-53
2022/05/05 02:50:16;;;;;;;8.65;6.57;;;22.80;99.90;;;;;;5033937;28;20024;-54
2022/05/05 02:52:42;;;;;;;8.47;7.00;;;22.80;99.90;;;;;;5051757;28;20091;-54
2022/05/05 02:55:08;;;;;;;8.32;6.80;;;22.70;99.90;;;;;;5051553;28;20112;-54
2022/05/05 02:57:34;;;;;;;8.25;6.70;;;22.70;99.90;;;;;;5051644;28;20060;-54
2022/05/05 03:00:20;;;;;;;7.47;6.45;;;22.70;99.90;;;;;;5058905;22;20076;-46
2022/05/05 03:02:46;;;;;;;8.27;6.47;;;22.70;99.90;;;;;;5031673;28;20052;-45
2022/05/05 03:05:13;;;;;;;8.13;6.50;;;22.70;99.90;;;;;;5031551;28;20030;-46
2022/05/05 03:07:41;;;;;;;8.73;6.65;;;22.70;99.90;;;;;;5031677;28;20096;-45
2022/05/05 03:10:07;;;;;;;;;;;22.70;99.90;;;;;;5031989;28;20057;-45
2022/05/05 03:12:32;;;;;;;8.27;5.97;;;22.70;99.90;;;;;;5031582;28;19948;-46
2022/05/05 03:14:58;;;;;;;7.35;6.10;;;22.70;99.90;;;;;;5031427;28;20040;-46
2022/05/05 03:17:24;;;;;;;7.63;6.00;;;22.70;99.90;;;;;;5031583;28;20095;-46
2022/05/05 03:19:50;;;;;;;7.38;6.03;;;22.70;99.90;;;;;;5030273;28;20032;-46
2022/05/05 03:22:16;;;;;;;8.18;6.28;;;22.70;99.90;;;;;;5030209;28;20159;-46
2022/05/05 03:24:41;;;;;;;7.35;6.40;;;22.70;99.90;;;;;;5031272;28;20432;-45
2022/05/05 03:27:07;;;;;;;8.40;6.22;;;22.70;99.90;;;;;;5031270;28;20026;-46
2022/05/05 03:29:33;;;;;;;7.53;6.55;;;22.70;99.90;;;;;;5031205;28;20018;-46
2022/05/05 03:31:59;;;;;;;7.15;5.88;;;22.70;99.90;;;;;;5031323;28;20176;-46
2022/05/05 03:34:25;;;;;;;6.85;5.70;;;22.70;99.90;;;;;;5031273;28;20111;-46
2022/05/05 03:36:50;;;;;;;7.97;6.68;;;22.70;99.90;;;;;;5030238;28;20493;-46
2022/05/05 03:39:16;;;;;;;8.20;6.45;;;22.70;99.90;;;;;;5031268;28;20105;-46
2022/05/05 03:41:42;;;;;;;7.43;6.43;;;22.70;99.90;;;;;;5031063;28;20385;-46
2022/05/05 03:44:08;;;;;;;7.00;6.30;;;22.70;99.90;;;;;;5031217;28;20017;-46
2022/05/05 03:46:34;;;;;;;7.70;6.28;;;22.70;99.90;;;;;;5029885;28;20029;-46
2022/05/05 03:49:00;;;;;;;7.85;6.80;;;22.70;99.90;;;;;;5031148;28;20401;-46
2022/05/05 03:51:44;;;;;;;7.68;5.65;;;22.70;99.90;;;;;;5031054;28;20060;-46
2022/05/05 03:54:10;;;;;;;9.23;7.25;;;22.70;99.90;;;;;;5031103;28;20024;-46
2022/05/05 03:56:55;;;;;;;7.00;6.15;;;22.70;99.90;;;;;;5030865;28;20037;-46
2022/05/05 03:59:24;;;;;;;7.70;6.03;;;22.70;99.90;;;;;;5031598;28;20472;-47
2022/05/05 04:01:50;;;;;;;7.50;6.07;;;22.70;99.90;;;;;;5031280;28;20080;-46
2022/05/05 04:04:17;;;;;;;8.10;6.10;;;22.70;99.90;;;;;;5031038;28;20014;-46
2022/05/05 04:06:43;;;;;;;8.15;6.60;;;22.70;99.90;;;;;;5030985;28;20040;-45
2022/05/05 04:09:10;;;;;;;8.55;6.28;;;22.70;99.90;;;;;;5031018;28;20029;-46
2022/05/05 04:11:36;;;;;;;8.75;6.43;;;22.70;99.90;;;;;;5030822;28;20039;-53
2022/05/05 04:14:03;;;;;;;7.18;6.05;;;22.70;99.90;;;;;;5030884;28;20029;-46
2022/05/05 04:16:31;;;;;;;7.78;5.80;;;22.70;99.90;;;;;;5030696;28;20025;-46
2022/05/05 04:19:15;;;;;;;8.05;6.75;;;22.70;99.90;;;;;;5031110;28;20469;-45
2022/05/05 04:21:41;;;;;;;8.05;6.47;;;22.70;99.90;;;;;;5018861;28;20040;-46
2022/05/05 04:24:07;;;;;;;8.20;6.35;;;22.70;99.90;;;;;;5030988;28;20443;-45
2022/05/05 04:26:33;;;;;;;8.07;6.20;;;22.70;99.90;;;;;;5030692;28;20064;-46
2022/05/05 04:28:59;;;;;;;9.15;6.75;;;22.70;99.90;;;;;;5030823;28;20045;-45
2022/05/05 04:31:29;;;;;;;8.10;6.75;;;22.70;99.90;;;;;;5030834;28;20022;-45
2022/05/05 04:33:55;;;;;;;8.52;7.03;;;22.70;99.90;;;;;;5029593;28;20026;-46
2022/05/05 04:36:21;;;;;;;7.88;6.40;;;22.70;99.90;;;;;;5030538;28;20108;-46
2022/05/05 04:38:47;;;;;;;8.85;7.05;;;22.70;99.90;;;;;;5030725;28;20373;-45
2022/05/05 04:41:13;;;;;;;9.45;6.80;;;22.70;99.90;;;;;;5030797;28;20034;-46
2022/05/05 04:43:38;;;;;;;8.50;6.97;;;22.70;99.90;;;;;;5030654;28;20100;-45
2022/05/05 04:46:04;;;;;;;8.98;6.93;;;22.70;99.90;;;;;;5030715;28;20440;-45
2022/05/05 04:48:31;;;;;;;7.47;6.35;;;22.60;99.90;;;;;;5030529;28;20144;-45
2022/05/05 04:50:57;;;;;;;8.23;6.30;;;22.70;99.90;;;;;;5030724;28;20014;-46
2022/05/05 04:53:22;;;;;;;8.60;6.72;;;22.70;99.90;;;;;;5032196;28;20034;-45
2022/05/05 04:55:48;;;;;;;8.32;6.97;;;22.70;99.90;;;;;;5034054;28;20558;-45
2022/05/05 04:58:14;;;;;;;7.55;6.70;;;22.70;99.90;;;;;;5033985;28;20032;-45
2022/05/05 05:00:40;;;;;;;8.35;6.93;;;22.60;99.90;;;;;;5033925;28;20045;-45
2022/05/05 05:03:32;;;;;;;8.30;6.90;;;22.60;99.90;;;;;;5034039;28;20380;-45
2022/05/05 05:05:51;;;;;;;8.98;7.05;;;22.70;99.90;;;;;;5033809;28;20377;-45
2022/05/05 05:08:17;;;;;;;8.40;6.82;;;22.70;99.90;;;;;;5033932;28;20022;-46
2022/05/05 05:10:43;;;;;;;8.18;6.88;;;22.60;99.90;;;;;;5033858;28;20496;-46
2022/05/05 05:13:09;;;;;;;8.50;6.55;;;22.60;99.90;;;;;;5033925;28;20492;-45
2022/05/05 05:15:34;;;;;;;7.82;6.50;;;22.60;99.90;;;;;;5033548;28;20041;-45
2022/05/05 05:18:00;;;;;;;9.70;6.90;;;22.60;99.90;;;;;;5033837;28;20025;-45
2022/05/05 05:20:26;;;;;;;8.40;6.68;;;22.60;99.90;;;;;;5033616;28;20030;-46
2022/05/05 05:22:52;;;;;;;9.20;6.90;;;22.60;99.90;;;;;;5033525;28;20038;-45
2022/05/05 05:25:17;;;;;;;8.80;6.85;;;22.60;99.90;;;;;;5032417;28;20026;-46
2022/05/05 05:27:43;;;;;;;9.23;6.47;;;22.60;99.90;;;;;;5033302;28;20420;-45
2022/05/05 05:30:09;;;;;;;8.98;6.70;;;22.70;99.90;;;;;;5033453;28;20083;-45
2022/05/05 05:32:35;;;;;;;8.88;7.03;;;22.60;99.90;;;;;;5033418;28;20311;-45
2022/05/05 05:35:01;;;;;;;7.53;6.53;;;22.60;99.90;;;;;;5033489;28;20030;-45
2022/05/05 05:37:26;;;;;;;8.73;6.95;;;22.60;99.90;;;;;;5033485;28;20069;-46
2022/05/05 05:39:52;;;;;;;8.57;6.70;;;22.60;99.90;;;;;;5033218;28;20201;-45
2022/05/05 05:42:18;;;;;;;7.75;6.68;;;22.60;99.90;;;;;;5033422;28;20148;-46
2022/05/05 05:44:44;;;;;;;9.00;6.65;;;22.60;99.90;;;;;;5033048;28;20060;-46
2022/05/05 05:47:12;;;;;;;9.82;6.68;;;22.60;99.90;;;;;;5033060;28;20037;-45
2022/05/05 05:49:38;;;;;;;8.43;7.18;;;22.60;99.90;;;;;;5033036;28;20033;-45
2022/05/05 05:52:04;;;;;;;10.90;7.30;;;22.60;99.90;;;;;;5033061;28;20029;-46
2022/05/05 05:54:30;;;;;;;10.15;7.57;;;22.70;99.90;;;;;;5033085;28;20120;-45
2022/05/05 05:56:56;;;;;;;8.90;6.95;;;22.60;99.90;;;;;;5032798;28;20254;-46
2022/05/05 05:59:22;;;;;;;9.98;7.53;;;22.60;99.90;;;;;;5033065;28;20021;-45
2022/05/05 06:04:32;;;;;;;9.77;7.45;;;22.70;99.90;;;;;;5032029;28;20413;-46
2022/05/05 06:06:58;;;;;;;11.27;8.27;;;22.60;99.90;;;;;;5032633;28;20025;-46
2022/05/05 06:09:24;;;;;;;8.55;6.85;;;22.60;99.90;;;;;;5032749;28;20033;-46
2022/05/05 06:11:50;;;;;;;9.68;7.50;;;22.60;99.90;;;;;;5032647;28;20051;-46
2022/05/05 06:14:16;;;;;;;8.73;6.82;;;22.60;99.90;;;;;;5032574;28;20025;-45
2022/05/05 06:16:42;;;;;;;9.90;7.30;;;22.60;99.90;;;;;;5032416;28;20034;-46
2022/05/05 06:19:07;;;;;;;9.52;7.53;;;22.60;99.90;;;;;;5032548;28;20028;-45
2022/05/05 06:21:33;;;;;;;10.27;8.25;;;22.60;99.90;;;;;;5032633;28;20017;-45
2022/05/05 06:23:59;;;;;;;11.43;8.13;;;22.60;99.90;;;;;;5032458;28;20032;-46
2022/05/05 06:26:27;;;;;;;11.20;7.32;;;22.60;99.90;;;;;;5032196;28;20153;-46
2022/05/05 06:28:54;;;;;;;10.27;7.32;;;22.60;99.90;;;;;;5032277;28;20040;-46
2022/05/05 06:31:20;;;;;;;11.50;7.83;;;22.60;99.90;;;;;;5032171;28;20030;-45
2022/05/05 06:33:45;;;;;;;11.05;7.20;;;22.60;99.90;;;;;;5032223;28;20044;-46
2022/05/05 06:36:11;;;;;;;10.98;7.20;;;22.70;99.90;;;;;;5032263;28;20060;-45
2022/05/05 06:38:38;;;;;;;8.63;7.03;;;22.70;99.90;;;;;;5032029;28;20044;-45
2022/05/05 06:41:04;;;;;;;9.80;7.70;;;22.70;99.90;;;;;;5032225;28;20063;-46
2022/05/05 06:43:30;;;;;;;10.43;7.38;;;22.70;99.90;;;;;;5031842;28;20108;-46
2022/05/05 06:46:14;;;;;;;8.82;7.30;;;22.70;99.90;;;;;;5031962;28;20045;-46
2022/05/05 06:48:41;;;;;;;9.55;7.47;;;22.70;99.90;;;;;;5018072;28;20022;-45
2022/05/05 06:51:06;;;;;;;12.77;7.80;;;22.70;99.90;;;;;;5031746;28;20104;-45
2022/05/05 06:53:32;;;;;;;10.13;7.65;;;22.70;99.90;;;;;;5031775;28;20139;-45
2022/05/05 06:56:00;;;;;;;10.27;7.03;;;22.70;99.90;;;;;;5031457;28;20068;-45
2022/05/05 06:58:26;;;;;;;11.25;7.57;;;22.70;99.90;;;;;;5031485;28;20028;-44
2022/05/05 07:03:36;;;;;;;11.30;7.30;;;22.70;99.90;;;;;;5031939;28;20032;-45
2022/05/05 07:06:03;;;;;;;11.48;7.32;;;22.70;99.90;;;;;;5031675;28;20029;-45
2022/05/05 07:10:52;;;;;;;13.00;7.80;;;22.70;99.90;;;;;;5031351;28;20030;-44
2022/05/05 07:11:15;;;;;;;11.07;8.00;;;22.70;99.90;;;;;;5031350;28;20026;-45
2022/05/05 07:13:41;;;;;;;11.60;7.78;;;22.70;99.90;;;;;;5031343;28;20032;-45
2022/05/05 07:16:07;;;;;;;12.18;7.00;;;22.70;99.90;;;;;;5031172;28;20400;-45
2022/05/05 07:18:32;;;;;;;9.85;7.13;;;22.70;99.90;;;;;;5031271;28;20060;-46
2022/05/05 07:20:58;;;;;;;10.10;7.43;;;22.70;99.90;;;;;;5031198;28;20025;-45
2022/05/05 07:23:24;;;;;;;7.95;6.35;;;22.70;99.90;;;;;;5031402;28;20025;-45
2022/05/05 07:25:50;;;;;;;10.52;6.50;;;22.70;99.90;;;;;;5031304;28;20028;-45
2022/05/05 07:28:16;;;;;;;10.80;6.57;;;22.70;99.90;;;;;;5017386;28;20014;-45
2022/05/05 07:30:42;;;;;;;9.25;6.90;;;22.70;99.90;;;;;;5031160;28;20025;-45
2022/05/05 07:33:07;;;;;;;12.52;7.05;;;22.70;99.90;;;;;;5031199;28;20021;-45
2022/05/05 07:35:33;;;;;;;8.18;6.25;;;22.70;99.90;;;;;;5031103;28;20484;-45
2022/05/05 07:37:59;;;;;;;9.13;6.70;;;22.70;99.90;;;;;;5030838;28;20435;-45
2022/05/05 07:40:25;;;;;;;11.23;6.90;;;22.80;99.90;;;;;;5031045;28;20025;-45
2022/05/05 07:42:51;;;;;;;9.30;6.75;;;22.70;99.90;;;;;;5030941;28;20485;-45
2022/05/05 07:45:17;;;;;;;8.98;6.35;;;22.70;99.90;;;;;;5030970;28;20018;-44
2022/05/05 07:47:42;;;;;;;10.45;6.25;;;22.80;99.90;;;;;;5030940;28;20025;-45
2022/05/05 07:50:09;;;;;;;8.02;6.10;;;22.80;99.90;;;;;;5031157;28;20478;-45
2022/05/05 07:52:35;;;;;;;11.07;6.65;;;22.80;99.90;;;;;;5031172;28;20386;-46
2022/05/05 07:55:00;;;;;;;7.93;5.55;;;22.80;99.90;;;;;;5030776;28;20033;-46
2022/05/05 07:57:26;;;;;;;8.70;6.38;;;22.80;99.90;;;;;;5029714;28;20021;-46
2022/05/05 07:59:52;;;;;;;8.32;5.88;;;22.80;99.90;;;;;;5030420;28;20042;-46
2022/05/05 08:02:18;;;;;;;7.45;5.93;;;22.80;99.90;;;;;;5030951;28;20018;-46
2022/05/05 08:04:44;;;;;;;7.72;5.68;;;22.70;99.90;;;;;;5029553;28;20049;-46
2022/05/05 08:07:11;;;;;;;7.13;5.63;;;22.80;99.90;;;;;;5030882;28;20103;-45
2022/05/05 08:09:38;;;;;;;9.27;6.25;;;22.70;99.90;;;;;;5031003;28;20017;-45
2022/05/05 08:12:05;;;;;;;8.32;5.93;;;22.70;99.90;;;;;;5030617;28;20091;-45
2022/05/05 08:14:31;;;;;;;7.65;5.72;;;22.70;99.90;;;;;;5030857;28;20408;-45
2022/05/05 08:16:58;;;;;;;8.02;5.78;;;22.80;99.90;;;;;;5030544;28;20069;-45
2022/05/05 08:19:24;;;;;;;7.00;5.57;;;22.70;99.90;;;;;;5030768;28;20024;-45
2022/05/05 08:21:50;;;;;;;6.80;5.35;;;22.70;99.90;;;;;;5030703;28;20124;-47
2022/05/05 08:29:45;;;;;;;7.60;5.43;;;22.80;99.90;;;;;;5034239;28;20028;-45
2022/05/05 08:32:12;;;;;;;6.95;5.43;;;22.80;99.90;;;;;;5034667;28;20389;-45
2022/05/05 08:34:38;;;;;;;7.55;4.90;;;22.70;99.90;;;;;;5034446;28;20105;-45
2022/05/05 08:37:04;;;;;;;7.28;5.68;;;22.70;99.90;;;;;;5034240;28;20116;-45
2022/05/05 08:39:30;;;;;;;6.07;5.43;;;22.70;99.90;;;;;;5034209;28;20018;-46
2022/05/05 08:41:56;;;;;;;7.38;5.25;;;22.70;99.90;;;;;;5034160;28;20029;-47
2022/05/05 08:44:22;;;;;;;8.68;5.90;;;22.70;99.90;;;;;;5034180;28;20026;-45
2022/05/05 08:46:50;;;;;;;6.28;4.72;;;22.70;99.90;;;;;;5034243;28;20025;-45
2022/05/05 08:49:20;;;;;;;6.38;5.20;;;22.70;99.90;;;;;;5034133;28;20121;-45
2022/05/05 08:51:49;;;;;;;5.55;4.65;;;22.70;99.90;;;;;;5033747;28;20024;-46
2022/05/05 08:54:18;;;;;;;6.47;5.43;;;22.70;99.90;;;;;;5034045;28;20026;-46
2022/05/05 08:56:48;;;;;;;7.45;5.53;;;22.70;99.90;;;;;;5033920;28;20072;-46
2022/05/05 08:59:14;;;;;;;6.28;5.25;;;22.70;99.90;;;;;;5033975;28;20063;-46
2022/05/05 09:01:41;;;;;;;7.13;4.70;;;22.70;99.90;;;;;;5033793;28;20053;-45
2022/05/05 09:04:08;;;;;;;6.80;4.95;;;22.70;99.90;;;;;;5033597;28;20028;-46
2022/05/05 09:06:42;;;;;;;6.03;4.70;;;22.80;99.90;;;;;;5033634;28;20503;-45
2022/05/05 09:09:23;;;;;;;8.50;5.22;;;22.70;99.90;;;;;;5020132;28;20082;-45
2022/05/05 09:12:12;;;;;;;5.53;4.97;;;22.70;99.90;;;;;;5032296;28;20036;-46
2022/05/05 09:14:41;;;;;;;6.53;5.20;;;22.70;99.90;;;;;;5033525;28;20051;-45
2022/05/05 09:17:08;;;;;;;7.18;6.18;;;22.70;99.90;;;;;;5033305;28;20040;-46
2022/05/05 09:19:39;;;;;;;7.77;5.23;;;22.70;99.90;;;;;;5033741;28;20540;-45
2022/05/05 09:22:06;;;;;;;5.93;4.65;;;22.80;99.90;;;;;;5033653;28;20025;-46
2022/05/05 09:24:35;;;;;;;6.53;4.70;;;22.80;99.90;;;;;;5033541;28;20053;-46
2022/05/05 09:27:26;;;;;;;6.55;4.95;;;22.80;99.90;;;;;;5033438;28;20037;-45
2022/05/05 09:30:06;;;;;;;7.72;5.57;;;22.70;99.90;;;;;;5033235;28;20021;-45
2022/05/05 09:32:39;;;;;;;5.90;4.97;;;22.80;99.90;;;;;;5033386;28;20032;-45
2022/05/05 09:35:13;;;;;;;8.85;5.80;;;22.80;99.90;;;;;;5033317;28;20464;-46
2022/05/05 09:37:49;;;;;;;7.28;4.80;;;22.80;99.90;;;;;;5033142;28;20036;-46
2022/05/05 09:40:18;;;;;;;6.97;5.35;;;22.80;99.90;;;;;;5020007;28;20018;-45
2022/05/05 09:42:52;;;;;;;7.95;5.05;;;22.80;99.90;;;;;;5032080;28;20033;-45
2022/05/05 09:45:24;;;;;;;6.72;4.90;;;22.80;99.90;;;;;;5019319;28;20022;-46
2022/05/05 09:47:54;;;;;;;6.32;5.05;;;22.90;99.90;;;;;;5032973;28;20025;-45
2022/05/05 09:50:22;;;;;;;6.60;4.88;;;22.80;99.90;;;;;;5032898;28;20026;-46
2022/05/05 09:58:22;;;;;;;6.03;4.82;;;22.90;99.90;;;;;;5032825;28;20091;-46
2022/05/05 10:00:58;;;;;;;5.75;4.65;;;22.90;99.90;;;;;;5032800;28;20450;-45
2022/05/05 10:04:00;;;;;;;6.72;5.20;;;22.90;99.90;;;;;;5032798;28;20543;-46
2022/05/05 10:06:47;;;;;;;6.18;4.68;;;22.90;99.90;;;;;;5000982;28;20037;-45
2022/05/05 10:09:16;;;;;;;5.65;4.35;;;22.90;99.90;;;;;;5020139;28;20037;-45
2022/05/05 10:11:42;;;;;;;5.65;4.40;;;23.00;99.90;;;;;;5032694;28;20037;-46
2022/05/05 10:14:09;;;;;;;7.18;4.78;;;23.00;99.90;;;;;;5032579;28;20021;-46
2022/05/05 10:16:39;;;;;;;;;;;23.00;99.90;;;;;;5032844;28;20485;-46
2022/05/05 10:19:06;;;;;;;6.50;4.35;;;23.00;99.90;;;;;;5031154;28;19905;-46
2022/05/05 10:21:34;;;;;;;4.50;4.07;;;23.10;99.90;;;;;;5031147;28;20045;-46
2022/05/05 10:24:16;;;;;;;5.35;4.80;;;23.00;99.90;;;;;;5032593;28;20029;-46
2022/05/05 10:26:47;;;;;;;6.88;4.80;;;23.00;99.90;;;;;;5032442;28;20036;-46
2022/05/05 10:29:32;;;;;;;6.88;4.30;;;23.00;99.90;;;;;;5032544;28;20100;-46
2022/05/05 10:32:10;;;;;;;6.18;4.30;;;23.10;99.90;;;;;;5020728;28;20035;-46
2022/05/05 10:34:40;;;;;;;5.38;4.40;;;23.00;99.90;;;;;;5032163;28;20100;-46
2022/05/05 10:37:09;;;;;;;5.75;4.68;;;23.10;99.90;;;;;;5032078;28;20041;-46
2022/05/05 10:39:45;;;;;;;6.25;5.10;;;23.10;99.90;;;;;;5032123;28;20030;-46
2022/05/05 10:42:22;;;;;;;6.18;4.45;;;23.10;99.90;;;;;;5032030;28;20504;-46
2022/05/05 10:45:29;;;;;;;5.97;4.63;;;23.10;99.90;;;;;;5031985;28;20037;-46
2022/05/05 10:47:55;;;;;;;;;;;23.10;99.90;;;;;;5032357;28;20048;-46
2022/05/05 10:53:42;;;;;;;7.70;4.90;;;23.20;99.90;;;;;;5031719;28;20052;-46
2022/05/05 10:56:27;;;;;;;6.90;4.38;;;23.20;99.90;;;;;;5031608;28;20029;-46
2022/05/05 10:59:08;;;;;;;5.47;4.45;;;23.30;99.90;;;;;;5031798;28;20234;-46
2022/05/05 11:01:43;;;;;;;7.50;4.97;;;23.20;99.90;;;;;;5031486;28;20045;-46
2022/05/05 11:04:15;;;;;;;5.93;4.90;;;23.30;99.90;;;;;;5031711;28;20025;-46
2022/05/05 11:06:42;;;;;;;6.47;4.93;;;23.30;99.90;;;;;;5031558;28;20061;-46
2022/05/05 11:09:08;;;;;;;6.50;5.28;;;23.30;99.90;;;;;;5031607;28;20487;-46
2022/05/05 11:11:44;;;;;;;7.25;5.75;;;23.30;99.90;;;;;;5031529;28;20087;-45
2022/05/05 11:23:10;;;;;;;7.00;5.25;;;23.40;99.90;;;;;;5017602;28;20384;-46
2022/05/05 11:25:43;;;;;;;6.35;4.85;;;23.40;99.90;;;;;;5031395;28;20025;-46
2022/05/05 11:28:09;;;;;;;6.72;4.57;;;23.40;99.90;;;;;;5031068;28;20040;-45
2022/05/05 11:30:36;;;;;;;6.72;5.00;;;23.40;99.90;;;;;;5031114;28;20026;-45
2022/05/05 11:33:03;;;;;;;6.07;4.82;;;23.50;99.90;;;;;;5030851;28;20469;-46
2022/05/05 11:35:29;;;;;;;9.07;5.40;;;23.50;99.90;;;;;;5031053;28;20144;-46
2022/05/05 11:37:55;;;;;;;6.75;6.00;;;23.50;99.90;;;;;;5029650;28;20138;-45
2022/05/05 11:40:21;;;;;;;7.55;6.03;;;23.50;99.90;;;;;;5031265;28;20029;-45
2022/05/05 11:45:34;;;;;;;7.00;5.60;;;23.50;99.90;;;;;;5019362;28;20036;-46
2022/05/05 11:48:17;;;;;;;6.93;5.53;;;23.50;99.90;;;;;;5030976;28;20020;-46
2022/05/05 11:50:47;;;;;;;7.45;5.78;;;23.50;99.90;;;;;;5030895;28;20030;-46
2022/05/05 11:53:17;;;;;;;6.20;5.25;;;23.50;99.90;;;;;;5030851;28;20021;-45
2022/05/05 11:55:48;;;;;;;7.05;5.68;;;23.50;99.90;;;;;;5030839;28;20043;-45
2022/05/05 11:58:16;;;;;;;6.38;5.35;;;23.50;99.90;;;;;;5030730;28;20481;-45
2022/05/05 12:04:00;;;;;;;8.63;6.07;;;23.50;99.90;;;;;;5033900;28;20051;-45
2022/05/05 12:06:27;;;;;;;8.70;5.95;;;23.60;99.90;;;;;;5034943;28;20040;-45
2022/05/05 12:08:56;;;;;;;7.47;5.60;;;23.60;99.90;;;;;;5035040;28;20063;-45
2022/05/05 12:11:25;;;;;;;7.25;5.72;;;23.60;99.90;;;;;;5035229;28;20032;-46
2022/05/05 12:13:51;;;;;;;6.35;5.70;;;23.60;99.90;;;;;;5034701;28;20025;-46
2022/05/05 12:16:18;;;;;;;7.40;6.05;;;23.60;99.90;;;;;;5034466;28;20547;-45
2022/05/05 12:18:53;;;;;;;6.43;5.32;;;23.60;99.90;;;;;;5034623;28;20088;-46
2022/05/05 12:21:23;;;;;;;8.55;6.38;;;23.70;99.90;;;;;;5034575;28;20026;-46
2022/05/05 12:24:15;;;;;;;6.57;5.45;;;23.60;99.90;;;;;;5034747;28;20017;-45
2022/05/05 12:26:41;;;;;;;7.45;5.97;;;23.70;99.90;;;;;;5031861;28;20517;-46
2022/05/05 12:29:14;;;;;;;7.28;5.38;;;23.70;99.90;;;;;;5034485;28;20147;-45
2022/05/05 12:31:54;;;;;;;6.78;5.13;;;23.70;99.90;;;;;;5034461;28;20037;-45
2022/05/05 12:34:25;;;;;;;6.95;5.32;;;23.70;99.90;;;;;;5034607;28;20120;-50
2022/05/05 12:37:13;;;;;;;5.97;5.30;;;23.70;99.90;;;;;;5021434;28;20037;-45
2022/05/05 12:39:52;;;;;;;8.68;5.88;;;23.70;99.90;;;;;;5034196;28;20032;-46
2022/05/05 12:42:18;;;;;;;6.75;5.55;;;23.70;99.90;;;;;;5034314;28;20428;-46
2022/05/05 12:44:44;;;;;;;7.97;5.47;;;23.70;99.90;;;;;;5033971;28;20029;-45
2022/05/05 12:47:11;;;;;;;7.47;5.60;;;23.70;99.90;;;;;;5034087;28;20017;-45
2022/05/05 12:49:38;;;;;;;7.63;5.90;;;23.70;99.90;;;;;;5034105;28;20393;-46
2022/05/05 12:52:05;;;;;;;6.90;5.78;;;23.70;99.90;;;;;;5034005;28;20487;-45
2022/05/05 13:00:01;;;;;;;6.55;5.28;;;23.80;99.90;;;;;;5033967;28;20129;-46
2022/05/05 13:02:27;;;;;;;6.72;5.03;;;23.80;99.90;;;;;;5033973;28;20045;-45
2022/05/05 13:04:53;;;;;;;7.95;5.47;;;23.80;99.90;;;;;;5034038;28;20476;-45
2022/05/05 13:07:19;;;;;;;6.25;5.10;;;23.80;99.90;;;;;;5032391;28;20431;-45
2022/05/05 13:09:45;;;;;;;7.35;5.25;;;23.90;99.90;;;;;;5033701;28;20020;-46
2022/05/05 13:12:11;;;;;;;8.75;5.50;;;23.80;99.90;;;;;;5033795;28;20079;-46
2022/05/05 13:14:37;;;;;;;6.70;5.18;;;23.80;99.90;;;;;;5033265;28;20108;-46
2022/05/05 13:17:03;;;;;;;8.90;5.90;;;23.90;99.90;;;;;;5033390;28;20128;-46
2022/05/05 13:19:29;;;;;;;7.03;5.85;;;23.90;99.90;;;;;;5033610;28;20082;-46
2022/05/05 13:21:56;;;;;;;14.43;6.07;;;23.90;99.90;;;;;;5033718;28;20037;-46
2022/05/05 13:24:22;;;;;;;10.90;6.10;;;23.90;99.90;;;;;;5033556;28;20064;-46
2022/05/05 13:26:48;;;;;;;13.63;6.40;;;23.90;99.90;;;;;;5033650;28;20061;-46
2022/05/05 13:29:14;;;;;;;10.63;6.35;;;24.00;99.90;;;;;;5033348;28;20029;-46
2022/05/05 13:31:40;;;;;;;9.93;5.85;;;23.90;99.90;;;;;;5033497;28;20018;-46
2022/05/05 13:34:06;;;;;;;14.30;6.72;;;24.00;99.90;;;;;;5033683;28;20444;-46
2022/05/05 13:36:32;;;;;;;11.98;5.80;;;24.00;99.90;;;;;;5033028;28;20030;-46
2022/05/05 13:38:58;;;;;;;9.55;5.60;;;24.00;99.90;;;;;;5033211;28;20079;-46
2022/05/05 13:41:24;;;;;;;7.90;5.45;;;24.00;99.90;;;;;;5033257;28;20029;-46